Time;durP1;ratioP1;P1;durP2;ratioP2;P2;SDS_P1;SDS_P2;PMS_P1;PMS_P2;Temp;Humidity;BMP_temperature;BMP_pressure;BME280_temperature;BME280_humidity;BME280_pressure;Samples;Min_cycle;Max_cycle;Signal;HPM_P1;HPM_P2
2021/10/22 00:01:09;;;;;;;7.20;1.00;;;;;;;9.63;100.00;96604.19;4959695;28;20101;-61
2021/10/22 00:03:35;;;;;;;7.43;0.80;;;;;;;9.64;100.00;96600.31;4958479;28;20039;-62
2021/10/22 00:06:00;;;;;;;3.47;0.80;;;;;;;9.50;99.53;96604.34;4980940;28;20133;-62
2021/10/22 00:08:26;;;;;;;4.72;0.95;;;;;;;9.41;100.00;96601.06;4979139;28;20046;-63
2021/10/22 00:10:52;;;;;;;8.50;1.95;;;;;;;9.41;100.00;96611.22;4983028;28;20046;-60
2021/10/22 00:13:18;;;;;;;4.90;1.33;;;;;;;9.42;100.00;96607.31;4978931;28;20043;-63
2021/10/22 00:15:44;;;;;;;5.50;1.27;;;;;;;9.40;100.00;96604.97;4983544;28;20101;-63
2021/10/22 00:18:09;;;;;;;6.93;1.35;;;;;;;9.44;100.00;96608.53;4981301;28;20430;-63
2021/10/22 00:20:35;;;;;;;3.70;0.90;;;;;;;9.34;100.00;96609.91;4973701;28;20057;-63
2021/10/22 00:23:00;;;;;;;6.13;1.20;;;;;;;9.14;100.00;96602.88;4985151;28;20039;-63
2021/10/22 00:25:26;;;;;;;5.22;1.00;;;;;;;9.08;100.00;96598.84;4978534;28;20054;-63
2021/10/22 00:27:52;;;;;;;4.30;1.20;;;;;;;9.01;100.00;96604.94;4984901;28;20049;-62
2021/10/22 00:30:17;;;;;;;6.93;1.10;;;;;;;8.96;100.00;96603.28;4982824;28;20046;-63
2021/10/22 00:32:43;;;;;;;4.45;1.27;;;;;;;9.06;100.00;96599.22;4990703;28;20094;-63
2021/10/22 00:35:08;;;;;;;3.22;0.73;;;;;;;8.99;100.00;96594.38;4979678;28;20042;-62
2021/10/22 00:37:34;;;;;;;5.05;0.70;;;;;;;9.02;100.00;96598.34;4984826;28;20162;-62
2021/10/22 00:39:59;;;;;;;16.17;6.65;;;;;;;9.06;100.00;96610.13;4979491;28;20106;-62
2021/10/22 00:42:25;;;;;;;6.43;1.20;;;;;;;9.04;100.00;96604.25;4974261;28;20109;-62
2021/10/22 00:44:51;;;;;;;4.45;1.15;;;;;;;9.08;100.00;96602.38;4981388;28;20125;-62
2021/10/22 00:47:17;;;;;;;2.35;0.90;;;;;;;9.09;100.00;96606.69;4977873;28;20500;-61
2021/10/22 00:49:43;;;;;;;3.63;0.80;;;;;;;9.14;100.00;96606.38;4982580;28;20077;-61
2021/10/22 00:52:09;;;;;;;7.50;1.23;;;;;;;9.14;100.00;96602.88;4976562;28;20407;-60
2021/10/22 00:54:35;;;;;;;4.57;1.58;;;;;;;9.19;100.00;96611.56;4979916;28;20119;-60
2021/10/22 00:57:01;;;;;;;6.70;1.17;;;;;;;9.17;100.00;96611.16;4979813;28;20069;-61
2021/10/22 00:59:26;;;;;;;6.55;1.10;;;;;;;9.29;100.00;96615.69;4976912;28;20039;-61
2021/10/22 01:01:52;;;;;;;3.67;0.98;;;;;;;9.55;100.00;96609.53;4982066;28;20126;-62
2021/10/22 01:04:17;;;;;;;6.60;1.00;;;;;;;9.53;100.00;96608.31;4975692;28;20053;-60
2021/10/22 01:06:43;;;;;;;6.88;1.00;;;;;;;9.60;100.00;96611.19;4982082;28;20069;-62
2021/10/22 01:09:11;;;;;;;4.28;0.85;;;;;;;9.57;100.00;96614.66;4976105;28;20097;-60
2021/10/22 01:11:37;;;;;;;5.13;2.00;;;;;;;9.56;100.00;96616.59;4979551;28;20130;-62
2021/10/22 01:14:03;;;;;;;4.80;1.00;;;;;;;9.62;100.00;96614.34;4977614;28;20136;-63
2021/10/22 01:16:29;;;;;;;1.85;0.85;;;;;;;9.68;100.00;96601.16;4979442;28;20034;-62
2021/10/22 01:18:55;;;;;;;1.48;1.00;;;;;;;9.62;100.00;96597.16;4961454;28;20038;-61
2021/10/22 01:21:21;;;;;;;6.28;1.13;;;;;;;9.64;100.00;96594.84;4975382;28;20492;-62
2021/10/22 01:23:47;;;;;;;3.85;1.00;;;;;;;9.66;100.00;96595.28;4982039;28;20042;-61
2021/10/22 01:26:13;;;;;;;7.57;1.08;;;;;;;9.67;100.00;96599.56;4971183;28;20403;-62
2021/10/22 01:28:39;;;;;;;7.20;1.10;;;;;;;9.67;100.00;96596.84;4981872;28;20045;-63
2021/10/22 01:31:05;;;;;;;5.32;0.80;;;;;;;9.72;100.00;96593.81;4976418;28;20502;-61
2021/10/22 01:33:32;;;;;;;4.95;1.10;;;;;;;9.67;100.00;96588.63;4982452;28;20054;-61
2021/10/22 01:35:58;;;;;;;3.55;1.25;;;;;;;9.49;100.00;96600.06;4979727;28;20050;-62
2021/10/22 01:38:25;;;;;;;3.67;1.38;;;;;;;9.38;100.00;96593.56;4975602;28;20971;-62
2021/10/22 01:40:55;;;;;;;5.00;0.90;;;;;;;9.29;100.00;96595.75;4982260;28;20058;-62
2021/10/22 01:43:23;;;;;;;2.08;0.88;;;;;;;9.24;100.00;96596.03;4974553;28;20536;-62
2021/10/22 01:45:49;;;;;;;4.82;1.20;;;;;;;9.26;100.00;96593.75;4978096;28;20049;-61
2021/10/22 01:48:15;;;;;;;4.13;0.70;;;;;;;9.36;100.00;96593.97;4975255;28;20040;-61
2021/10/22 01:50:40;;;;;;;2.35;0.95;;;;;;;9.51;100.00;96583.28;4980317;28;20042;-62
2021/10/22 01:53:06;;;;;;;2.58;1.02;;;;;;;9.55;100.00;96593.13;4973440;28;20073;-64
2021/10/22 01:55:31;;;;;;;3.55;1.13;;;;;;;9.60;100.00;96583.84;4976367;28;20042;-63
2021/10/22 01:57:57;;;;;;;4.68;1.00;;;;;;;9.57;100.00;96585.34;4981140;28;20050;-62
2021/10/22 02:00:22;;;;;;;3.63;1.00;;;;;;;9.61;100.00;96593.63;4977577;28;21021;-63
2021/10/22 02:02:48;;;;;;;3.05;0.80;;;;;;;9.61;100.00;96593.63;4985362;28;20086;-63
2021/10/22 02:05:13;;;;;;;2.90;0.85;;;;;;;9.62;100.00;96586.22;4957031;28;20439;-63
2021/10/22 02:07:39;;;;;;;6.60;1.48;;;;;;;9.59;100.00;96584.22;4991972;28;20083;-62
2021/10/22 02:10:05;;;;;;;3.72;0.93;;;;;;;9.45;100.00;96590.19;4983318;28;20042;-62
2021/10/22 02:12:31;;;;;;;4.22;1.00;;;;;;;9.41;100.00;96587.41;4975510;28;20042;-62
2021/10/22 02:14:56;;;;;;;5.88;1.13;;;;;;;9.39;100.00;96589.69;4987840;28;20046;-62
2021/10/22 02:17:21;;;;;;;6.45;1.38;;;;;;;9.44;100.00;96588.63;4992720;28;21012;-62
2021/10/22 02:19:47;;;;;;;5.88;1.10;;;;;;;9.49;100.00;96583.66;4986083;28;20053;-62
2021/10/22 02:22:14;;;;;;;5.30;2.00;;;;;;;9.52;100.00;96588.38;4977993;28;20080;-63
2021/10/22 02:24:39;;;;;;;5.00;1.10;;;;;;;9.46;100.00;96595.31;4979771;28;20768;-62
2021/10/22 02:27:05;;;;;;;2.45;0.95;;;;;;;9.28;100.00;96589.50;4979396;28;20046;-63
2021/10/22 02:29:30;;;;;;;2.92;0.85;;;;;;;9.19;100.00;96586.19;4977530;28;20046;-61
2021/10/22 02:31:56;;;;;;;7.97;1.45;;;;;;;9.12;100.00;96588.78;4989131;28;20054;-65
2021/10/22 02:34:22;;;;;;;3.45;1.00;;;;;;;9.16;100.00;96595.09;4974412;28;20699;-61
2021/10/22 02:36:49;;;;;;;2.75;1.00;;;;;;;9.23;100.00;96597.19;4984223;28;20429;-63
2021/10/22 02:39:15;;;;;;;4.70;0.93;;;;;;;9.31;100.00;96596.97;4971237;28;20042;-62
2021/10/22 02:41:41;;;;;;;4.38;1.10;;;;;;;9.33;100.00;96599.34;4992463;28;20514;-63
2021/10/22 02:44:06;;;;;;;5.65;0.90;;;;;;;9.28;100.00;96596.91;4990868;28;20038;-63
2021/10/22 02:46:32;;;;;;;2.63;0.77;;;;;;;9.22;100.00;96601.06;4987659;28;20503;-63
2021/10/22 02:48:58;;;;;;;8.85;1.42;;;;;;;9.17;100.00;96594.75;4981281;28;20121;-63
2021/10/22 02:51:23;;;;;;;4.72;0.77;;;;;;;9.19;100.00;96595.19;4991667;28;20479;-62
2021/10/22 02:53:49;;;;;;;9.05;1.55;;;;;;;9.29;100.00;96599.28;4976582;28;20116;-62
2021/10/22 02:56:14;;;;;;;3.03;0.85;;;;;;;9.37;100.00;96605.69;4964969;28;20482;-62
2021/10/22 02:58:40;;;;;;;6.85;1.13;;;;;;;9.44;100.00;96611.28;4979627;28;20050;-61
2021/10/22 03:01:05;;;;;;;2.95;1.13;;;;;;;9.46;100.00;96611.72;4974401;28;20061;-62
2021/10/22 03:03:32;;;;;;;5.75;1.25;;;;;;;9.41;100.00;96611.22;4977543;28;20525;-61
2021/10/22 03:05:57;;;;;;;3.85;1.00;;;;;;;9.26;100.00;96610.16;4977024;28;20050;-62
2021/10/22 03:08:23;;;;;;;2.50;0.90;;;;;;;9.17;100.00;96613.88;4983326;28;20188;-62
2021/10/22 03:10:48;;;;;;;6.53;1.10;;;;;;;9.23;100.00;96624.53;4985466;28;20050;-62
2021/10/22 03:13:14;;;;;;;2.50;1.02;;;;;;;9.19;100.00;96616.25;4976302;28;20072;-63
2021/10/22 03:15:39;;;;;;;5.03;1.10;;;;;;;9.30;100.00;96619.97;4984403;28;20034;-62
2021/10/22 03:18:04;;;;;;;7.20;1.10;;;;;;;9.32;100.00;96616.91;4978535;28;20076;-61
2021/10/22 03:20:31;;;;;;;6.07;1.10;;;;;;;9.26;100.00;96610.16;4975553;28;20038;-61
2021/10/22 03:22:57;;;;;;;6.90;1.40;;;;;;;9.15;100.00;96613.44;4994197;28;20034;-62
2021/10/22 03:25:22;;;;;;;4.43;1.10;;;;;;;9.11;100.00;96620.78;4995214;28;20273;-62
2021/10/22 03:27:48;;;;;;;5.38;1.02;;;;;;;9.07;100.00;96621.84;4999877;28;20064;-60
2021/10/22 03:30:15;;;;;;;4.03;1.10;;;;;;;9.03;100.00;96626.47;4995615;28;20065;-62
2021/10/22 03:32:40;;;;;;;3.80;1.25;;;;;;;9.01;100.00;96623.28;4986932;28;20058;-61
2021/10/22 03:35:06;;;;;;;3.28;0.80;;;;;;;9.03;100.00;96624.50;4976482;28;20092;-61
2021/10/22 03:37:32;;;;;;;4.70;1.13;;;;;;;8.96;100.00;96627.88;4971202;28;20038;-60
2021/10/22 03:39:58;;;;;;;6.30;1.25;;;;;;;8.94;100.00;96623.94;4983077;28;20834;-62
2021/10/22 03:42:23;;;;;;;6.43;1.17;;;;;;;9.03;100.00;96626.47;4976634;28;20061;-61
2021/10/22 03:44:49;;;;;;;4.85;1.10;;;;;;;9.10;100.00;96630.13;4986594;28;20030;-61
2021/10/22 03:47:14;;;;;;;3.70;1.08;;;;;;;9.14;100.00;96633.72;4984864;28;20116;-60
2021/10/22 03:49:40;;;;;;;2.90;1.35;;;;;;;9.19;100.00;96638.13;4980038;28;20133;-60
2021/10/22 03:52:05;;;;;;;5.55;1.50;;;;;;;9.29;100.00;96639.47;4986593;28;20049;-62
2021/10/22 03:54:31;;;;;;;5.28;1.40;;;;;;;9.17;100.00;96646.66;4981802;28;20031;-62
2021/10/22 03:56:56;;;;;;;5.57;1.52;;;;;;;9.06;100.00;96633.94;4990619;28;20096;-59
2021/10/22 03:59:22;;;;;;;6.57;1.63;;;;;;;9.10;100.00;96637.53;4997845;28;20078;-63
2021/10/22 04:01:49;;;;;;;6.43;1.60;;;;;;;9.06;100.00;96636.69;4999684;28;20046;-61
2021/10/22 04:04:15;;;;;;;4.30;1.42;;;;;;;8.91;100.00;96638.28;4985453;28;20041;-61
2021/10/22 04:06:40;;;;;;;6.20;1.67;;;;;;;8.80;100.00;96635.31;4979111;28;20050;-61
2021/10/22 04:09:07;;;;;;;10.98;2.25;;;;;;;8.82;100.00;96635.75;4973056;28;20101;-62
2021/10/22 04:11:33;;;;;;;4.72;1.42;;;;;;;8.79;100.00;96640.00;4977272;28;20479;-62
2021/10/22 04:14:01;;;;;;;5.82;1.55;;;;;;;8.79;100.00;96637.28;4976453;28;20042;-61
2021/10/22 04:16:27;;;;;;;6.55;1.60;;;;;;;8.91;100.00;96639.09;4977691;28;20053;-61
2021/10/22 04:18:52;;;;;;;9.23;1.58;;;;;;;9.07;100.00;96646.44;4987521;28;20042;-61
2021/10/22 04:21:17;;;;;;;4.88;1.35;;;;;;;9.13;100.00;96645.81;4985493;28;20414;-63
2021/10/22 04:23:45;;;;;;;4.93;1.50;;;;;;;9.10;100.00;96643.78;4982359;28;20046;-60
2021/10/22 04:26:11;;;;;;;4.10;1.88;;;;;;;9.06;100.00;96647.59;4971682;28;20101;-63
2021/10/22 04:28:36;;;;;;;3.13;1.10;;;;;;;9.05;100.00;96655.00;4991144;28;20062;-61
2021/10/22 04:31:01;;;;;;;3.50;1.23;;;;;;;9.03;100.00;96654.56;4982647;28;20140;-62
2021/10/22 04:33:27;;;;;;;7.05;1.60;;;;;;;9.05;100.00;96648.75;4978015;28;20054;-63
2021/10/22 04:35:52;;;;;;;6.15;1.58;;;;;;;9.04;100.00;96653.41;4982345;28;20042;-62
2021/10/22 04:40:52;;;;;;;8.43;1.67;;;;;;;8.98;100.00;96652.09;4982539;28;20046;-62
2021/10/22 04:43:19;;;;;;;7.07;1.48;;;;;;;8.94;100.00;96652.03;4981517;28;20074;-62
2021/10/22 04:45:49;;;;;;;5.82;1.85;;;;;;;8.96;100.00;96655.19;4980102;28;20495;-63
2021/10/22 04:48:16;;;;;;;9.32;2.38;;;;;;;9.04;100.00;96653.41;4998991;28;20042;-63
2021/10/22 04:50:50;;;;;;;8.57;1.52;;;;;;;9.04;100.00;96667.09;4993491;28;20818;-61
2021/10/22 04:53:19;;;;;;;4.68;1.27;;;;;;;9.09;100.00;96658.59;4976663;28;20085;-62
2021/10/22 04:55:44;;;;;;;8.43;2.00;;;;;;;9.01;100.00;96656.06;4985842;28;20054;-62
2021/10/22 04:58:10;;;;;;;7.20;1.80;;;;;;;9.00;100.00;96658.00;4992873;28;20394;-62
2021/10/22 05:00:36;;;;;;;7.07;1.38;;;;;;;9.07;100.00;96660.09;4981017;28;20042;-62
2021/10/22 05:03:02;;;;;;;4.53;1.38;;;;;;;9.24;100.00;96661.63;4985631;28;20045;-62
2021/10/22 05:05:28;;;;;;;6.65;1.27;;;;;;;9.22;100.00;96663.91;4977732;28;20758;-62
2021/10/22 05:07:54;;;;;;;6.50;1.33;;;;;;;9.13;100.00;96670.41;4987513;28;20061;-62
2021/10/22 05:10:19;;;;;;;7.03;1.60;;;;;;;9.05;100.00;96670.59;4976722;28;20038;-61
2021/10/22 05:12:45;;;;;;;6.57;1.35;;;;;;;9.16;100.00;96674.34;4985391;28;20487;-61
2021/10/22 05:15:12;;;;;;;3.58;1.30;;;;;;;9.13;100.00;96673.13;4984598;28;20045;-62
2021/10/22 05:17:38;;;;;;;12.98;1.92;;;;;;;9.16;100.00;96672.44;4990696;28;20117;-62
2021/10/22 05:20:06;;;;;;;6.30;1.40;;;;;;;9.12;100.00;96668.81;4973751;28;20272;-61
2021/10/22 05:22:32;;;;;;;11.77;1.60;;;;;;;9.22;100.00;96675.66;4991133;28;20042;-61
2021/10/22 05:24:58;;;;;;;5.10;1.60;;;;;;;9.17;100.00;96678.66;4994147;28;20057;-60
2021/10/22 05:27:23;;;;;;;5.90;1.23;;;;;;;9.28;100.00;96668.75;4985351;28;20752;-63
2021/10/22 05:29:49;;;;;;;4.40;1.70;;;;;;;9.37;100.00;96680.25;4980557;28;20045;-62
2021/10/22 05:32:14;;;;;;;5.18;1.40;;;;;;;9.33;100.00;96673.94;4976243;28;20049;-61
2021/10/22 05:34:39;;;;;;;3.10;1.60;;;;;;;9.32;100.00;96683.28;4979255;28;20065;-61
2021/10/22 05:37:05;;;;;;;5.47;1.27;;;;;;;9.56;100.00;96695.06;4979082;28;20498;-61
2021/10/22 05:39:31;;;;;;;4.00;1.17;;;;;;;9.57;100.00;96699.41;4989254;28;20050;-61
2021/10/22 05:41:56;;;;;;;1.55;0.88;;;;;;;9.49;100.00;96694.94;4979975;28;20039;-60
2021/10/22 05:44:23;;;;;;;1.48;0.95;;;;;;;9.41;100.00;96704.94;4980725;28;20875;-61
2021/10/22 05:46:53;;;;;;;2.15;1.13;;;;;;;9.32;100.00;96705.13;4980840;28;20038;-63
2021/10/22 05:49:19;;;;;;;3.63;1.23;;;;;;;9.23;100.00;96704.56;4972725;28;20046;-61
2021/10/22 05:51:46;;;;;;;4.68;1.63;;;;;;;9.13;100.00;96714.13;4995148;28;20137;-60
2021/10/22 05:54:11;;;;;;;1.55;1.10;;;;;;;9.06;100.00;96713.97;4987893;28;20117;-63
2021/10/22 05:56:37;;;;;;;2.13;0.98;;;;;;;8.64;100.00;96725.44;4982830;28;20133;-59
2021/10/22 05:59:03;;;;;;;3.05;1.00;;;;;;;8.58;100.00;96732.34;4958553;28;20042;-60
2021/10/22 06:01:28;;;;;;;2.00;1.17;;;;;;;8.53;100.00;96735.31;4987768;28;20046;-61
2021/10/22 06:03:54;;;;;;;1.35;1.10;;;;;;;7.58;100.00;96731.25;4979965;28;20048;-60
2021/10/22 06:06:20;;;;;;;2.03;1.20;;;;;;;7.24;100.00;96738.84;4947381;28;20046;-62
2021/10/22 06:08:45;;;;;;;3.85;1.50;;;;;;;7.50;100.00;96745.81;4981122;28;20084;-60
2021/10/22 06:11:12;;;;;;;2.40;1.52;;;;;;;7.80;100.00;96750.94;4983927;28;20045;-64
2021/10/22 06:13:38;;;;;;;1.85;1.52;;;;;;;7.49;100.00;96751.59;4981475;28;20042;-60
2021/10/22 06:16:05;;;;;;;2.63;1.88;;;;;;;7.30;100.00;96749.50;4975070;28;20054;-62
2021/10/22 06:18:31;;;;;;;3.00;2.17;;;;;;;7.08;100.00;96746.13;4976460;28;20069;-61
2021/10/22 06:21:03;;;;;;;5.60;2.42;;;;;;;7.01;100.00;96754.09;4989606;28;20483;-56
2021/10/22 06:26:12;;;;;;;2.88;2.28;;;;;;;7.00;100.00;96753.25;4969053;28;20047;-59
2021/10/22 06:28:39;;;;;;;19.38;13.02;;;;;;;6.95;100.00;96749.97;4988881;28;20042;-59
2021/10/22 06:31:04;;;;;;;11.38;7.05;;;;;;;7.02;100.00;96763.81;4969695;28;20172;-60
2021/10/22 06:33:29;;;;;;;8.68;5.88;;;;;;;7.07;100.00;96774.50;4970210;28;20126;-64
2021/10/22 06:35:55;;;;;;;2.58;2.30;;;;;;;7.05;100.00;96776.75;4987880;28;20038;-63
2021/10/22 06:38:21;;;;;;;2.85;2.40;;;;;;;7.05;100.00;96787.66;4997155;28;20042;-58
2021/10/22 06:40:47;;;;;;;2.78;2.28;;;;;;;6.93;100.00;96793.88;4997302;28;20037;-58
2021/10/22 06:43:16;;;;;;;3.35;2.22;;;;;;;6.81;100.00;96802.06;4974888;28;20076;-59
2021/10/22 06:45:42;;;;;;;3.47;2.42;;;;;;;6.79;100.00;96810.56;4979704;28;20054;-62
2021/10/22 06:48:07;;;;;;;3.33;2.70;;;;;;;6.83;100.00;96808.75;4990579;28;20108;-62
2021/10/22 06:50:33;;;;;;;4.57;2.70;;;;;;;7.06;100.00;96820.00;4965156;28;20050;-62
2021/10/22 06:52:58;;;;;;;3.17;2.10;;;;;;;6.98;100.00;96815.44;4988503;28;20065;-61
2021/10/22 06:55:24;;;;;;;7.10;5.18;;;;;;;6.89;100.00;96821.00;4982833;28;20562;-62
2021/10/22 06:57:49;;;;;;;5.53;3.42;;;;;;;6.70;100.00;96821.56;4983667;28;20051;-61
2021/10/22 07:00:15;;;;;;;7.35;4.38;;;;;;;6.76;100.00;96824.06;4977872;28;20522;-61
2021/10/22 07:02:51;;;;;;;7.50;3.65;;;;;;;6.88;100.00;96827.59;4970387;28;20050;-60
2021/10/22 07:07:52;;;;;;;7.80;2.58;;;;;;;6.84;100.00;96832.13;4982263;28;20083;-62
2021/10/22 07:10:18;;;;;;;3.95;2.20;;;;;;;7.19;100.00;96848.03;4970381;28;20041;-62
2021/10/22 07:12:44;;;;;;;5.55;2.08;;;;;;;7.24;100.00;96850.53;5003721;28;20137;-63
2021/10/22 07:15:09;;;;;;;4.20;2.40;;;;;;;7.04;100.00;96856.88;4976887;28;20066;-63
2021/10/22 07:17:35;;;;;;;5.88;2.85;;;;;;;7.26;100.00;96861.88;4987162;28;20119;-61
2021/10/22 07:20:00;;;;;;;3.47;2.30;;;;;;;7.46;100.00;96859.38;4988300;28;20049;-62
2021/10/22 07:22:32;;;;;;;6.45;2.95;;;;;;;7.33;100.00;96874.94;4981971;28;20046;-62
2021/10/22 07:24:57;;;;;;;2.72;1.90;;;;;;;7.43;100.00;96882.63;5000982;28;20200;-61
2021/10/22 07:27:23;;;;;;;7.35;4.70;;;;;;;7.17;100.00;96879.47;4972924;28;20782;-57
2021/10/22 07:29:49;;;;;;;4.03;2.72;;;;;;;7.24;100.00;96880.50;4991658;28;20129;-63
2021/10/22 07:32:14;;;;;;;4.50;3.17;;;;;;;7.20;100.00;96881.50;4977412;28;20135;-60
2021/10/22 07:34:40;;;;;;;3.35;2.40;;;;;;;7.24;100.00;96879.72;4979402;28;20561;-61
2021/10/22 07:37:05;;;;;;;3.20;1.77;;;;;;;7.25;100.00;96879.34;4975069;28;20057;-61
2021/10/22 07:39:31;;;;;;;2.80;2.00;;;;;;;7.22;100.00;96887.41;4985437;28;20042;-62
2021/10/22 07:41:56;;;;;;;3.42;2.45;;;;;;;7.14;100.00;96886.38;4972916;28;20046;-67
2021/10/22 07:44:23;;;;;;;5.47;2.70;;;;;;;6.94;100.00;96888.06;4969257;28;20682;-61
2021/10/22 07:46:49;;;;;;;5.75;2.83;;;;;;;7.00;100.00;96891.38;4975830;28;20669;-62
2021/10/22 07:49:15;;;;;;;6.35;3.92;;;;;;;7.21;100.00;96891.28;4976578;28;20073;-62
2021/10/22 07:51:41;;;;;;;4.38;2.92;;;;;;;7.37;100.00;96897.63;4986819;28;20046;-60
2021/10/22 07:54:07;;;;;;;5.03;2.80;;;;;;;7.21;100.00;96907.63;4976875;28;20615;-58
2021/10/22 07:56:32;;;;;;;3.35;2.13;;;;;;;7.26;100.00;96904.69;4966195;28;20038;-62
2021/10/22 07:58:58;;;;;;;3.10;2.40;;;;;;;7.68;100.00;96901.72;4981944;28;20491;-62
2021/10/22 08:01:23;;;;;;;4.80;2.20;;;;;;;8.02;100.00;96911.31;4985540;28;20053;-60
2021/10/22 08:03:49;;;;;;;4.35;2.53;;;;;;;8.32;100.00;96913.75;4982079;28;20088;-58
2021/10/22 08:06:15;;;;;;;3.85;2.55;;;;;;;8.31;100.00;96922.25;4968588;28;20074;-61
2021/10/22 08:08:45;;;;;;;3.92;3.08;;;;;;;8.42;100.00;96920.66;4982301;28;20153;-60
2021/10/22 08:11:14;;;;;;;3.85;2.30;;;;;;;7.60;100.00;96935.34;4977427;28;20046;-64
2021/10/22 08:13:39;;;;;;;3.25;2.13;;;;;;;7.32;100.00;96941.47;4983122;28;20100;-60
2021/10/22 08:16:05;;;;;;;4.15;2.60;;;;;;;7.35;100.00;96943.50;4978335;28;20133;-62
2021/10/22 08:18:30;;;;;;;3.10;2.20;;;;;;;7.38;100.00;96937.41;4982661;28;20042;-63
2021/10/22 08:21:00;;;;;;;4.22;2.60;;;;;;;7.88;100.00;96932.69;4977995;28;20157;-60
2021/10/22 08:23:26;;;;;;;;;;;;;;;8.10;100.00;96941.53;4976211;28;20142;-62
2021/10/22 08:25:52;;;;;;;3.92;2.10;;;;;;;8.46;100.00;96942.59;4991263;28;20024;-61
2021/10/22 08:28:18;;;;;;;4.35;2.50;;;;;;;8.61;100.00;96955.53;4978256;28;20069;-61
2021/10/22 08:30:44;;;;;;;4.50;2.88;;;;;;;8.82;100.00;96951.78;4990158;28;20035;-60
2021/10/22 08:33:11;;;;;;;3.47;2.40;;;;;;;8.90;100.00;96942.66;4977593;28;20502;-62
2021/10/22 08:35:37;;;;;;;7.82;3.80;;;;;;;9.11;100.00;96948.66;4985116;28;20504;-61
2021/10/22 08:38:05;;;;;;;18.95;7.35;;;;;;;9.05;100.00;96954.75;4980491;28;20050;-59
2021/10/22 08:40:31;;;;;;;3.13;2.22;;;;;;;9.11;100.00;96953.31;4967844;28;20046;-58
2021/10/22 08:42:56;;;;;;;3.80;2.10;;;;;;;9.03;100.00;96960.53;4980460;28;20049;-61
2021/10/22 08:45:22;;;;;;;1.95;1.58;;;;;;;9.11;100.00;96961.53;4978466;28;20592;-56
2021/10/22 08:47:47;;;;;;;3.60;1.80;;;;;;;9.10;100.00;96959.94;4981746;28;20566;-61
2021/10/22 08:50:16;;;;;;;3.03;1.63;;;;;;;9.17;100.00;96962.88;4975608;28;20053;-60
2021/10/22 08:52:42;;;;;;;3.25;2.05;;;;;;;9.17;100.00;96969.13;4978361;28;20050;-60
2021/10/22 08:55:12;;;;;;;3.88;1.95;;;;;;;9.25;100.00;96975.56;4980838;28;20050;-60
2021/10/22 08:57:42;;;;;;;3.90;1.70;;;;;;;9.38;100.00;96971.63;4977647;28;20039;-60
2021/10/22 09:00:09;;;;;;;2.88;1.50;;;;;;;9.51;100.00;96979.75;4975048;28;20057;-60
2021/10/22 09:02:34;;;;;;;1.73;1.27;;;;;;;9.57;100.00;96973.63;4965863;28;20041;-61
2021/10/22 09:05:11;;;;;;;5.13;1.50;;;;;;;9.78;100.00;96989.00;4987517;28;20049;-61
2021/10/22 09:07:40;;;;;;;3.35;1.25;;;;;;;9.81;100.00;96979.28;4975433;28;20050;-60
2021/10/22 09:10:07;;;;;;;3.17;1.30;;;;;;;10.02;97.23;96987.19;4973836;28;20052;-61
2021/10/22 09:12:50;;;;;;;9.20;2.83;;;;;;;10.06;100.00;96994.31;4977744;28;20046;-61
2021/10/22 09:15:29;;;;;;;2.50;1.35;;;;;;;9.77;100.00;96987.41;4976881;28;20050;-62
2021/10/22 09:17:57;;;;;;;2.83;1.42;;;;;;;9.77;100.00;96999.13;4981328;28;20377;-62
2021/10/22 09:20:24;;;;;;;2.22;1.27;;;;;;;9.79;100.00;96998.78;4954060;28;20225;-62
2021/10/22 09:22:56;;;;;;;4.15;1.50;;;;;;;9.75;100.00;97000.63;4980313;28;20042;-61
2021/10/22 09:25:24;;;;;;;5.93;1.58;;;;;;;9.73;100.00;97003.72;4976523;28;20054;-62
2021/10/22 09:27:56;;;;;;;6.03;1.90;;;;;;;9.84;100.00;97009.44;4977346;28;20046;-63
2021/10/22 09:30:42;;;;;;;2.85;1.50;;;;;;;9.98;100.00;97005.47;4971034;28;20722;-63
2021/10/22 09:33:20;;;;;;;1.70;1.05;;;;;;;10.30;94.61;97012.47;4977497;28;20049;-63
2021/10/22 09:35:53;;;;;;;5.60;1.38;;;;;;;10.32;96.34;97014.91;4983742;28;20050;-63
2021/10/22 09:38:19;;;;;;;4.18;1.20;;;;;;;10.41;96.26;97018.22;4970432;28;20043;-63
2021/10/22 09:40:59;;;;;;;4.13;1.30;;;;;;;10.27;96.56;97026.88;4979759;28;20089;-63
2021/10/22 09:43:36;;;;;;;4.82;1.63;;;;;;;10.31;96.66;97022.28;4970468;28;20069;-63
2021/10/22 09:46:16;;;;;;;3.00;1.52;;;;;;;10.33;98.50;97025.50;4981929;28;20045;-63
2021/10/22 09:48:45;;;;;;;2.45;1.23;;;;;;;10.33;98.31;97022.75;4984390;28;20050;-61
2021/10/22 09:51:23;;;;;;;4.47;1.50;;;;;;;10.40;96.46;97030.31;4978428;28;20046;-63
2021/10/22 09:53:49;;;;;;;14.60;6.03;;;;;;;10.70;95.09;97027.84;4981790;28;20310;-63
2021/10/22 09:56:23;;;;;;;6.32;2.85;;;;;;;10.73;89.26;97031.00;4984559;28;20037;-62
2021/10/22 09:59:03;;;;;;;3.17;1.90;;;;;;;10.70;91.74;97036.06;4984694;28;20042;-61
2021/10/22 10:01:30;;;;;;;3.80;1.98;;;;;;;10.67;93.31;97044.19;4976319;28;20046;-63
2021/10/22 10:03:58;;;;;;;3.95;1.70;;;;;;;10.71;93.02;97050.53;4989187;28;20053;-62
2021/10/22 10:06:24;;;;;;;2.20;1.73;;;;;;;10.55;93.13;97042.38;4980181;28;20046;-62
2021/10/22 10:08:50;;;;;;;4.13;1.85;;;;;;;10.61;92.01;97046.44;4990066;28;20046;-62
2021/10/22 10:11:16;;;;;;;3.42;1.40;;;;;;;10.43;92.89;97043.31;4984769;28;20096;-59
2021/10/22 10:13:42;;;;;;;3.55;1.65;;;;;;;10.32;93.81;97037.59;4989081;28;20133;-63
2021/10/22 10:16:09;;;;;;;15.98;8.80;;;;;;;10.20;95.82;97051.34;4984750;28;20163;-62
2021/10/22 10:18:45;;;;;;;5.43;1.80;;;;;;;10.11;97.52;97046.06;4985849;28;20042;-63
2021/10/22 10:21:15;;;;;;;5.00;1.98;;;;;;;10.15;99.98;97048.88;4980718;28;20057;-60
2021/10/22 10:23:42;;;;;;;3.27;1.63;;;;;;;10.00;97.93;97049.69;4991702;28;20589;-63
2021/10/22 10:26:25;;;;;;;3.22;1.60;;;;;;;9.95;98.21;97057.00;4987762;28;20056;-63
2021/10/22 10:28:52;;;;;;;4.93;2.05;;;;;;;9.89;97.71;97058.44;4977408;28;20038;-63
2021/10/22 10:31:44;;;;;;;3.67;1.80;;;;;;;10.11;99.21;97058.94;4988564;28;20542;-63
2021/10/22 10:34:30;;;;;;;3.90;1.90;;;;;;;10.47;99.06;97051.59;4983368;28;20054;-63
2021/10/22 10:37:05;;;;;;;9.15;2.17;;;;;;;10.58;96.28;97052.63;4987462;28;20105;-64
2021/10/22 10:39:44;;;;;;;2.88;1.80;;;;;;;10.62;95.81;97058.16;4990706;28;20066;-60
2021/10/22 10:42:26;;;;;;;3.85;2.00;;;;;;;10.54;99.28;97064.66;4985445;28;20050;-60
2021/10/22 10:44:53;;;;;;;3.60;1.80;;;;;;;10.75;94.29;97065.13;4994535;28;20483;-63
2021/10/22 10:47:28;;;;;;;3.40;1.98;;;;;;;10.28;97.53;97063.25;4980943;28;20379;-63
2021/10/22 10:49:53;;;;;;;8.82;2.28;;;;;;;10.00;96.18;97063.38;4991778;28;20041;-62
2021/10/22 10:52:41;;;;;;;3.45;1.85;;;;;;;9.75;100.00;97060.81;4982685;28;20878;-63
2021/10/22 10:55:14;;;;;;;3.45;1.88;;;;;;;9.85;100.00;97063.03;4981046;28;20069;-62
2021/10/22 10:57:51;;;;;;;3.63;1.88;;;;;;;9.91;98.26;97061.59;4985774;28;20042;-62
2021/10/22 11:00:19;;;;;;;4.40;1.95;;;;;;;9.92;99.91;97070.59;4982586;28;20049;-63
2021/10/22 11:03:00;;;;;;;5.30;2.20;;;;;;;9.74;100.00;97064.69;4984666;28;20042;-61
2021/10/22 11:08:14;;;;;;;8.68;3.20;;;;;;;9.71;100.00;97060.72;4984495;28;20450;-60
2021/10/22 11:11:08;;;;;;;10.05;2.42;;;;;;;9.88;99.94;97053.31;4982169;28;20631;-62
2021/10/22 11:13:54;;;;;;;6.22;2.70;;;;;;;9.96;100.00;97052.34;4988954;28;20549;-62
2021/10/22 11:16:23;;;;;;;4.57;2.05;;;;;;;10.47;95.57;97046.91;4974870;28;20043;-61
2021/10/22 11:19:00;;;;;;;3.70;1.85;;;;;;;10.57;94.39;97050.22;4990581;28;20061;-62
2021/10/22 11:21:36;;;;;;;2.97;1.98;;;;;;;10.64;96.10;97053.94;4986685;28;20046;-60
2021/10/22 11:24:05;;;;;;;3.08;1.70;;;;;;;10.90;92.14;97045.06;4985812;28;20043;-60
2021/10/22 11:26:32;;;;;;;6.82;1.85;;;;;;;10.91;96.07;97037.66;4989339;28;20082;-62
2021/10/22 11:29:13;;;;;;;5.38;1.85;;;;;;;11.13;92.48;97041.63;4989522;28;20459;-61
2021/10/22 11:31:39;;;;;;;4.18;1.98;;;;;;;11.15;92.17;97036.56;4986278;28;20042;-61
2021/10/22 11:34:07;;;;;;;3.30;1.33;;;;;;;11.61;88.26;97041.31;4985295;28;20548;-62
2021/10/22 11:36:34;;;;;;;4.82;1.48;;;;;;;11.98;84.90;97036.09;4990532;28;20057;-61
2021/10/22 11:39:02;;;;;;;3.35;1.42;;;;;;;11.80;85.87;97030.28;4985989;28;20088;-63
2021/10/22 11:41:27;;;;;;;4.60;1.40;;;;;;;11.58;87.42;97033.84;4983430;28;20052;-63
2021/10/22 11:44:03;;;;;;;4.85;1.50;;;;;;;11.38;84.14;97036.63;4989035;28;20042;-63
2021/10/22 11:46:47;;;;;;;3.58;1.75;;;;;;;10.94;85.05;97041.63;4986992;28;20133;-63